Time;durP1;ratioP1;P1;durP2;ratioP2;P2;SDS_P1;SDS_P2;PMS_P1;PMS_P2;Temp;Humidity;BMP_temperature;BMP_pressure;BME280_temperature;BME280_humidity;BME280_pressure;Samples;Min_cycle;Max_cycle;Signal;HPM_P1;HPM_P2
2023/04/12 00:00:45;;;;;;;;;;;10.10;99.90;;;;;;5102708;28;19924;-68
2023/04/12 00:03:12;;;;;;;;;;;10.10;99.90;;;;;;5098897;28;20023;-68
2023/04/12 00:05:38;;;;;;;;;;;10.10;99.90;;;;;;5104360;28;19932;-67
2023/04/12 00:08:09;;;;;;;;;;;10.00;99.90;;;;;;5096422;28;19924;-67
2023/04/12 00:10:36;;;;;;;;;;;10.00;99.90;;;;;;5101749;28;20346;-67
2023/04/12 00:13:03;;;;;;;;;;;10.00;99.90;;;;;;5101323;28;19924;-68
2023/04/12 00:15:30;;;;;;;;;;;10.00;99.90;;;;;;5098014;28;19923;-68
2023/04/12 00:17:57;;;;;;;;;;;9.90;99.90;;;;;;5099387;27;19924;-68
2023/04/12 00:20:23;;;;;;;;;;;9.90;99.90;;;;;;5104595;28;19958;-68
2023/04/12 00:22:50;;;;;;;;;;;9.90;99.90;;;;;;5103183;28;19924;-67
2023/04/12 00:25:19;;;;;;;;;;;9.90;99.90;;;;;;5097057;28;20400;-68
2023/04/12 00:27:46;;;;;;;;;;;9.80;99.90;;;;;;5104008;28;19930;-67
2023/04/12 00:30:12;;;;;;;;;;;9.80;99.90;;;;;;5097258;28;19924;-70
2023/04/12 00:32:39;;;;;;;;;;;9.80;99.90;;;;;;5101231;28;19934;-68
2023/04/12 00:35:06;;;;;;;;;;;9.70;99.90;;;;;;5096035;28;20027;-70
2023/04/12 00:37:35;;;;;;;;;;;9.60;99.90;;;;;;5098345;28;19924;-68
2023/04/12 00:40:01;;;;;;;;;;;9.60;99.90;;;;;;5100012;28;19923;-67
2023/04/12 00:42:31;;;;;;;;;;;9.50;99.90;;;;;;5087261;28;20394;-67
2023/04/12 00:44:59;;;;;;;;;;;9.60;99.90;;;;;;5093428;28;19924;-68
2023/04/12 00:47:28;;;;;;;;;;;9.50;99.90;;;;;;5095632;28;19923;-68
2023/04/12 00:49:55;;;;;;;;;;;9.50;99.90;;;;;;5102652;28;19959;-67
2023/04/12 00:52:23;;;;;;;;;;;9.50;99.90;;;;;;5096760;28;19931;-68
2023/04/12 00:54:50;;;;;;;;;;;9.50;99.90;;;;;;5097941;28;19931;-67
2023/04/12 00:57:17;;;;;;;;;;;9.50;99.90;;;;;;5100397;28;19924;-68
2023/04/12 00:59:45;;;;;;;;;;;9.50;99.90;;;;;;5102359;28;19924;-68
2023/04/12 01:02:12;;;;;;;;;;;9.40;99.90;;;;;;5100612;28;20316;-69
2023/04/12 01:04:43;;;;;;;;;;;9.40;99.90;;;;;;5091624;28;19928;-68
2023/04/12 01:07:14;;;;;;;;;;;9.40;99.90;;;;;;5102154;28;19928;-67
2023/04/12 01:09:50;;;;;;;;;;;9.40;99.90;;;;;;5103959;28;19924;-67
2023/04/12 01:12:21;;;;;;;;;;;9.30;99.90;;;;;;5103327;28;19975;-68
2023/04/12 01:14:52;;;;;;;;;;;9.30;99.90;;;;;;5099752;28;19928;-69
2023/04/12 01:17:23;;;;;;;;;;;9.30;99.90;;;;;;5093751;28;19924;-69
2023/04/12 01:19:56;;;;;;;;;;;9.30;99.90;;;;;;5098668;28;19923;-66
2023/04/12 01:22:31;;;;;;;;;;;9.30;99.90;;;;;;5097454;28;20440;-68
2023/04/12 01:25:04;;;;;;;;;;;9.30;99.90;;;;;;5096447;28;20014;-69
2023/04/12 01:27:38;;;;;;;;;;;9.30;99.90;;;;;;5098427;28;19946;-68
2023/04/12 01:30:07;;;;;;;;;;;9.20;99.90;;;;;;5106698;28;20306;-67
2023/04/12 01:32:34;;;;;;;;;;;9.20;99.90;;;;;;5097558;28;19948;-69
2023/04/12 01:35:06;;;;;;;;;;;9.30;99.90;;;;;;5095204;28;19924;-70
2023/04/12 01:37:33;;;;;;;;;;;9.20;99.90;;;;;;5098802;28;20346;-68
2023/04/12 01:40:00;;;;;;;;;;;9.20;99.90;;;;;;5093147;28;19924;-68
2023/04/12 01:42:27;;;;;;;;;;;9.20;99.90;;;;;;5105328;28;19923;-69
2023/04/12 01:45:04;;;;;;;;;;;9.20;99.90;;;;;;5096771;28;20037;-68
2023/04/12 01:47:32;;;;;;;;;;;9.20;99.90;;;;;;5105482;28;19932;-67
2023/04/12 01:50:03;;;;;;;;;;;9.20;99.90;;;;;;5098198;28;19925;-68
2023/04/12 01:52:32;;;;;;;;;;;9.20;99.90;;;;;;5105249;28;20363;-68
2023/04/12 01:55:01;;;;;;;;;;;9.20;99.90;;;;;;5107358;28;19924;-68
2023/04/12 01:57:28;;;;;;;;;;;9.10;99.90;;;;;;5103326;28;20002;-68
2023/04/12 01:59:56;;;;;;;;;;;9.10;99.90;;;;;;5096730;28;19923;-69
2023/04/12 02:02:24;;;;;;;;;;;9.20;99.90;;;;;;5101514;28;19997;-70
2023/04/12 02:04:53;;;;;;;;;;;9.20;99.90;;;;;;5108316;28;19931;-68
2023/04/12 02:07:21;;;;;;;;;;;9.20;99.90;;;;;;5100080;28;20035;-68
2023/04/12 02:09:48;;;;;;;;;;;9.20;99.90;;;;;;5101495;28;19924;-66
2023/04/12 02:12:19;;;;;;;;;;;9.20;99.90;;;;;;5103720;28;19955;-68
2023/04/12 02:14:47;;;;;;;;;;;9.20;99.90;;;;;;5111471;28;19927;-69
2023/04/12 02:17:13;;;;;;;;;;;9.20;99.90;;;;;;5104236;28;19924;-68
2023/04/12 02:19:41;;;;;;;;;;;9.20;99.90;;;;;;5100892;28;19924;-68
2023/04/12 02:22:10;;;;;;;;;;;9.20;99.90;;;;;;5106183;28;19932;-67
2023/04/12 02:24:36;;;;;;;;;;;9.20;99.90;;;;;;5102992;28;19924;-69
2023/04/12 02:27:03;;;;;;;;;;;9.20;99.90;;;;;;5107809;28;19924;-68
2023/04/12 02:29:30;;;;;;;;;;;9.20;99.90;;;;;;5099254;28;19932;-69
2023/04/12 02:31:57;;;;;;;;;;;9.20;99.90;;;;;;5105846;28;19931;-68
2023/04/12 02:34:30;;;;;;;;;;;9.20;99.90;;;;;;5102394;28;19928;-69
2023/04/12 02:37:07;;;;;;;;;;;9.20;99.90;;;;;;5092255;28;19924;-67
2023/04/12 02:39:36;;;;;;;;;;;9.10;99.90;;;;;;5101438;28;20383;-68
2023/04/12 02:42:04;;;;;;;;;;;9.20;99.90;;;;;;5100477;28;20360;-69
2023/04/12 02:44:31;;;;;;;;;;;9.10;99.90;;;;;;5098080;28;19969;-67
2023/04/12 02:47:10;;;;;;;;;;;9.10;99.90;;;;;;5106151;28;19970;-68
2023/04/12 02:49:38;;;;;;;;;;;9.20;99.90;;;;;;5105149;28;19947;-69
2023/04/12 02:52:05;;;;;;;;;;;9.20;99.90;;;;;;5098121;28;19931;-69
2023/04/12 02:54:42;;;;;;;;;;;9.20;99.90;;;;;;5108476;28;19932;-68
2023/04/12 02:57:14;;;;;;;;;;;9.20;99.90;;;;;;5094235;28;19924;-69
2023/04/12 02:59:45;;;;;;;;;;;9.10;99.90;;;;;;5109100;28;20387;-69
2023/04/12 03:02:19;;;;;;;;;;;9.10;99.90;;;;;;5101031;28;19947;-68
2023/04/12 03:04:49;;;;;;;;;;;9.20;99.90;;;;;;5107971;28;19959;-66
2023/04/12 03:07:20;;;;;;;;;;;9.20;99.90;;;;;;5101575;28;20023;-66
2023/04/12 03:09:52;;;;;;;;;;;9.20;99.90;;;;;;5105813;28;19931;-68
2023/04/12 03:12:22;;;;;;;;;;;9.20;99.90;;;;;;5099777;28;19924;-67
2023/04/12 03:15:01;;;;;;;;;;;9.20;99.90;;;;;;5094293;28;19928;-69
2023/04/12 03:17:28;;;;;;;;;;;9.20;99.90;;;;;;5100990;28;19930;-68
2023/04/12 03:19:57;;;;;;;;;;;9.20;99.90;;;;;;5089283;28;19924;-69
2023/04/12 03:22:25;;;;;;;;;;;9.20;99.90;;;;;;5105074;28;19930;-67
2023/04/12 03:24:58;;;;;;;;;;;9.10;99.90;;;;;;5090496;28;20329;-68
2023/04/12 03:27:25;;;;;;;;;;;9.10;99.90;;;;;;5098368;28;19924;-69
2023/04/12 03:29:53;;;;;;;;;;;9.10;99.90;;;;;;5103581;28;19953;-69
2023/04/12 03:32:22;;;;;;;;;;;9.20;99.90;;;;;;5099007;28;19959;-69
2023/04/12 03:34:49;;;;;;;;;;;9.20;99.90;;;;;;5105228;28;19931;-67
2023/04/12 03:37:22;;;;;;;;;;;9.20;99.90;;;;;;5100656;28;19924;-67
2023/04/12 03:39:49;;;;;;;;;;;9.20;99.90;;;;;;5099198;28;19928;-68
2023/04/12 03:42:23;;;;;;;;;;;9.20;99.90;;;;;;5105447;28;19923;-68
2023/04/12 03:44:52;;;;;;;;;;;9.20;99.90;;;;;;5105263;28;20027;-69
2023/04/12 03:47:21;;;;;;;;;;;9.20;99.90;;;;;;5090207;28;19928;-70
2023/04/12 03:49:48;;;;;;;;;;;9.20;99.90;;;;;;5104586;28;19928;-67
2023/04/12 03:52:17;;;;;;;;;;;9.10;99.90;;;;;;5090405;28;19932;-69
2023/04/12 03:54:45;;;;;;;;;;;9.10;99.90;;;;;;5118128;27;19936;-68
2023/04/12 03:57:16;;;;;;;;;;;9.10;99.90;;;;;;5095261;28;19967;-69
2023/04/12 03:59:47;;;;;;;;;;;9.10;99.90;;;;;;5106008;28;20387;-69
2023/04/12 04:02:17;;;;;;;;;;;9.00;99.90;;;;;;5098347;28;20358;-67
2023/04/12 04:04:47;;;;;;;;;;;9.00;99.90;;;;;;5106865;28;20019;-69
2023/04/12 04:07:26;;;;;;;;;;;8.90;99.90;;;;;;5095205;28;19935;-67
2023/04/12 04:09:55;;;;;;;;;;;8.90;99.90;;;;;;5086167;28;19954;-69
2023/04/12 04:12:23;;;;;;;;;;;8.80;99.90;;;;;;5101269;28;20362;-68
2023/04/12 04:14:55;;;;;;;;;;;8.70;99.90;;;;;;5095567;28;19931;-68
2023/04/12 04:17:31;;;;;;;;;;;8.70;99.90;;;;;;5098961;28;20459;-67
2023/04/12 04:19:58;;;;;;;;;;;8.60;99.90;;;;;;5103437;28;19931;-68
2023/04/12 04:22:25;;;;;;;;;;;8.50;99.90;;;;;;5097395;28;19935;-68
2023/04/12 04:24:54;;;;;;;;;;;8.50;99.90;;;;;;5101093;28;20280;-68
2023/04/12 04:27:22;;;;;;;;;;;8.50;99.90;;;;;;5096429;28;20014;-68
2023/04/12 04:29:52;;;;;;;;;;;8.40;99.90;;;;;;5098706;28;19924;-69
2023/04/12 04:32:20;;;;;;;;;;;8.40;99.90;;;;;;5085039;28;19973;-67
2023/04/12 04:34:47;;;;;;;;;;;8.40;99.90;;;;;;5098780;28;19928;-68
2023/04/12 04:37:18;;;;;;;;;;;8.40;99.90;;;;;;5097525;28;20331;-67
2023/04/12 04:39:46;;;;;;;;;;;8.40;99.90;;;;;;5103424;28;19930;-67
2023/04/12 04:42:13;;;;;;;;;;;8.40;99.90;;;;;;5090835;28;19963;-68
2023/04/12 04:44:51;;;;;;;;;;;8.40;99.90;;;;;;5086517;28;19924;-69
2023/04/12 04:47:17;;;;;;;;;;;8.40;99.90;;;;;;5098486;28;19966;-66
2023/04/12 04:49:46;;;;;;;;;;;8.40;99.90;;;;;;5085822;28;19924;-68
2023/04/12 04:52:23;;;;;;;;;;;8.40;99.90;;;;;;5090318;28;20314;-67
2023/04/12 04:54:56;;;;;;;;;;;8.40;99.90;;;;;;5093015;28;19924;-68
2023/04/12 04:57:23;;;;;;;;;;;8.40;99.90;;;;;;5089453;28;19925;-67
2023/04/12 04:59:51;;;;;;;;;;;8.40;99.90;;;;;;5097585;28;20036;-68
2023/04/12 05:02:17;;;;;;;;;;;8.40;99.90;;;;;;5080390;28;19935;-66
2023/04/12 05:04:46;;;;;;;;;;;8.40;99.90;;;;;;5086682;28;19967;-67
2023/04/12 05:07:16;;;;;;;;;;;8.40;99.90;;;;;;5102127;28;19927;-69
2023/04/12 05:09:45;;;;;;;;;;;8.40;99.90;;;;;;5094075;28;19924;-68
2023/04/12 05:12:12;;;;;;;;;;;8.40;99.90;;;;;;5097086;28;19924;-67
2023/04/12 05:14:43;;;;;;;;;;;8.30;99.90;;;;;;5098095;28;19928;-68
2023/04/12 05:17:10;;;;;;;;;;;8.30;99.90;;;;;;5095491;28;19924;-66
2023/04/12 05:19:37;;;;;;;;;;;8.20;99.90;;;;;;5102803;28;19924;-68
2023/04/12 05:22:05;;;;;;;;;;;8.30;99.90;;;;;;5091018;28;20019;-66
2023/04/12 05:24:32;;;;;;;;;;;8.30;99.90;;;;;;5099016;28;19930;-68
2023/04/12 05:26:59;;;;;;;;;;;8.30;99.90;;;;;;5103162;28;19971;-67
2023/04/12 05:29:26;;;;;;;;;;;8.20;99.90;;;;;;5087469;28;19924;-67
2023/04/12 05:31:53;;;;;;;;;;;8.20;99.90;;;;;;5091637;28;19924;-65
2023/04/12 05:34:23;;;;;;;;;;;8.20;99.90;;;;;;5085312;28;19947;-68
2023/04/12 05:36:53;;;;;;;;;;;8.20;99.90;;;;;;5107846;28;19924;-67
2023/04/12 05:39:23;;;;;;;;;;;8.20;99.90;;;;;;5092846;28;19962;-66
2023/04/12 05:41:51;;;;;;;;;;;8.30;99.90;;;;;;5098445;28;19967;-67
2023/04/12 05:44:18;;;;;;;;;;;8.30;99.90;;;;;;5093406;28;19924;-69
2023/04/12 05:46:45;;;;;;;;;;;8.30;99.90;;;;;;5103072;28;19932;-69
2023/04/12 05:49:13;;;;;;;;;;;8.30;99.90;;;;;;5089173;28;20018;-68
2023/04/12 05:51:40;;;;;;;;;;;8.30;99.90;;;;;;5104413;28;19927;-66
2023/04/12 05:54:07;;;;;;;;;;;8.30;99.90;;;;;;5088392;28;20327;-68
2023/04/12 05:56:37;;;;;;;;;;;8.30;99.90;;;;;;5090290;28;19935;-67
2023/04/12 05:59:05;;;;;;;;;;;8.30;99.90;;;;;;5108726;28;19923;-66
2023/04/12 06:01:33;;;;;;;;;;;8.30;99.90;;;;;;5103825;28;20349;-68
2023/04/12 06:04:01;;;;;;;;;;;8.30;99.90;;;;;;5109365;28;19937;-67
2023/04/12 06:06:29;;;;;;;;;;;8.30;99.90;;;;;;5105789;28;19924;-68
2023/04/12 06:08:56;;;;;;;;;;;8.30;99.90;;;;;;5094394;28;19924;-68
2023/04/12 06:11:23;;;;;;;;;;;8.40;99.90;;;;;;5100434;28;19924;-66
2023/04/12 06:13:51;;;;;;;;;;;8.40;99.90;;;;;;5101813;28;19924;-69
2023/04/12 06:16:18;;;;;;;;;;;8.40;99.90;;;;;;5103608;28;20378;-69
2023/04/12 06:18:46;;;;;;;;;;;8.40;99.90;;;;;;5103948;28;19928;-71
2023/04/12 06:21:13;;;;;;;;;;;8.50;99.90;;;;;;5108925;28;19924;-69
2023/04/12 06:23:41;;;;;;;;;;;8.50;99.90;;;;;;5100148;28;19934;-68
2023/04/12 06:26:09;;;;;;;;;;;8.50;99.90;;;;;;5109634;28;19924;-67
2023/04/12 06:28:36;;;;;;;;;;;8.60;99.90;;;;;;5102771;28;19928;-68
2023/04/12 06:31:04;;;;;;;;;;;8.60;99.90;;;;;;5105332;28;20005;-68
2023/04/12 06:33:36;;;;;;;;;;;8.60;99.90;;;;;;5102874;28;19925;-68
2023/04/12 06:36:06;;;;;;;;;;;8.70;99.90;;;;;;5106304;27;20466;-68
2023/04/12 06:38:33;;;;;;;;;;;8.70;99.90;;;;;;5108747;28;19925;-69
2023/04/12 06:41:00;;;;;;;;;;;8.70;99.90;;;;;;5106975;28;20018;-66
2023/04/12 06:43:27;;;;;;;;;;;8.70;99.90;;;;;;5102461;28;19924;-68
2023/04/12 06:45:55;;;;;;;;;;;8.80;99.90;;;;;;5107516;28;19923;-69
2023/04/12 06:48:23;;;;;;;;;;;8.90;99.90;;;;;;5104351;28;19953;-68
2023/04/12 06:50:50;;;;;;;;;;;8.90;99.90;;;;;;5085180;28;19967;-67
2023/04/12 06:53:17;;;;;;;;;;;8.90;99.90;;;;;;5082650;28;19924;-68
2023/04/12 06:55:44;;;;;;;;;;;9.00;99.90;;;;;;5090788;28;19924;-71
2023/04/12 06:58:11;;;;;;;;;;;9.00;99.90;;;;;;5105918;28;19947;-68
2023/04/12 07:00:37;;;;;;;;;;;9.00;99.90;;;;;;5102304;28;19928;-68
2023/04/12 07:03:04;;;;;;;;;;;9.10;99.90;;;;;;5096454;28;19923;-68
2023/04/12 07:05:32;;;;;;;;;;;9.10;99.90;;;;;;5087606;28;20391;-67
2023/04/12 07:07:59;;;;;;;;;;;9.10;99.90;;;;;;5090465;28;19978;-68
2023/04/12 07:10:26;;;;;;;;;;;9.10;99.90;;;;;;5095441;28;19925;-68
2023/04/12 07:12:53;;;;;;;;;;;9.10;99.90;;;;;;5099674;28;19935;-70
2023/04/12 07:15:19;;;;;;;;;;;9.20;99.90;;;;;;5101513;28;19932;-68
2023/04/12 07:17:46;;;;;;;;;;;9.20;99.90;;;;;;5091136;28;19924;-68
2023/04/12 07:20:13;;;;;;;;;;;9.30;99.90;;;;;;5088315;28;19928;-69
2023/04/12 07:22:41;;;;;;;;;;;9.30;99.90;;;;;;5091642;28;19928;-69
2023/04/12 07:25:09;;;;;;;;;;;9.30;99.90;;;;;;5102862;28;19924;-68
2023/04/12 07:27:36;;;;;;;;;;;9.30;99.90;;;;;;5092463;28;19928;-69
2023/04/12 07:30:03;;;;;;;;;;;9.30;99.90;;;;;;5092506;28;19928;-67
2023/04/12 07:32:30;;;;;;;;;;;9.40;99.90;;;;;;5084264;28;19970;-68
2023/04/12 07:34:56;;;;;;;;;;;9.50;99.90;;;;;;5089238;28;20356;-68
2023/04/12 07:37:23;;;;;;;;;;;9.40;99.90;;;;;;5087957;28;19927;-67
2023/04/12 07:39:52;;;;;;;;;;;9.40;99.90;;;;;;5088364;28;19924;-68
2023/04/12 07:42:18;;;;;;;;;;;9.40;99.90;;;;;;5094297;28;19924;-69
2023/04/12 07:44:45;;;;;;;;;;;9.40;99.90;;;;;;5082407;28;19925;-68
2023/04/12 07:47:12;;;;;;;;;;;9.50;99.90;;;;;;5091118;28;19924;-68
2023/04/12 07:49:39;;;;;;;;;;;9.50;99.90;;;;;;5092396;28;19924;-69
2023/04/12 07:52:06;;;;;;;;;;;9.60;99.90;;;;;;5087417;28;19924;-69
2023/04/12 07:54:33;;;;;;;;;;;9.70;99.90;;;;;;5084138;28;19924;-70
2023/04/12 07:57:02;;;;;;;;;;;9.80;99.90;;;;;;5097074;28;19924;-69
2023/04/12 07:59:29;;;;;;;;;;;9.80;99.90;;;;;;5090140;28;19925;-71
2023/04/12 08:01:56;;;;;;;;;;;9.80;99.90;;;;;;5094911;28;19960;-69
2023/04/12 08:04:23;;;;;;;;;;;9.80;99.90;;;;;;5096062;28;19924;-68
2023/04/12 08:06:49;;;;;;;;;;;9.90;99.90;;;;;;5100603;28;19932;-69
2023/04/12 08:09:16;;;;;;;;;;;10.10;99.90;;;;;;5091632;28;19928;-69
2023/04/12 08:11:43;;;;;;;;;;;10.20;99.90;;;;;;5091722;28;19974;-66
2023/04/12 08:14:11;;;;;;;;;;;10.40;99.90;;;;;;5100204;28;19927;-69
2023/04/12 08:16:38;;;;;;;;;;;10.40;99.90;;;;;;5102167;28;19931;-69
2023/04/12 08:19:05;;;;;;;;;;;10.40;99.90;;;;;;5091485;28;19924;-68
2023/04/12 08:21:32;;;;;;;;;;;10.40;99.90;;;;;;5092144;28;19928;-67
2023/04/12 08:23:59;;;;;;;;;;;10.30;99.90;;;;;;5093468;28;20402;-69
2023/04/12 08:26:28;;;;;;;;;;;10.30;99.90;;;;;;5102642;28;19924;-66
2023/04/12 08:28:56;;;;;;;;;;;10.20;99.90;;;;;;5101366;28;19924;-69
2023/04/12 08:31:24;;;;;;;;;;;10.30;99.90;;;;;;5091530;28;19924;-67
2023/04/12 08:33:51;;;;;;;;;;;10.20;99.90;;;;;;5087042;28;20074;-67
2023/04/12 08:36:17;;;;;;;;;;;10.20;99.90;;;;;;5091415;28;19924;-69
2023/04/12 08:38:44;;;;;;;;;;;10.10;99.90;;;;;;5100148;28;19985;-69
2023/04/12 08:41:11;;;;;;;;;;;10.00;99.90;;;;;;5096388;28;19973;-68
2023/04/12 08:43:43;;;;;;;;;;;9.90;99.90;;;;;;5090754;28;19924;-68
2023/04/12 08:46:12;;;;;;;;;;;9.70;99.90;;;;;;5102299;28;19924;-68
2023/04/12 08:48:40;;;;;;;;;;;9.80;99.90;;;;;;5093756;28;19928;-69
2023/04/12 08:51:08;;;;;;;;;;;9.80;99.90;;;;;;5095058;28;20306;-70
2023/04/12 08:53:35;;;;;;;;;;;9.80;99.90;;;;;;5104196;28;19927;-69
2023/04/12 08:56:02;;;;;;;;;;;9.90;99.90;;;;;;5083403;28;19928;-69
2023/04/12 08:58:30;;;;;;;;;;;10.10;99.90;;;;;;5090274;28;19971;-69
2023/04/12 09:00:56;;;;;;;;;;;10.20;99.90;;;;;;5092120;28;20001;-70
2023/04/12 09:03:23;;;;;;;;;;;10.10;99.90;;;;;;5097406;28;20356;-70
2023/04/12 09:05:51;;;;;;;;;;;10.20;99.90;;;;;;5092510;28;19924;-69
2023/04/12 09:08:18;;;;;;;;;;;10.20;99.90;;;;;;5098826;28;19928;-69
2023/04/12 09:10:45;;;;;;;;;;;10.20;99.90;;;;;;5088684;28;19932;-70
2023/04/12 09:13:12;;;;;;;;;;;10.30;99.90;;;;;;5095691;28;19924;-69
2023/04/12 09:15:48;;;;;;;;;;;10.30;99.90;;;;;;5089213;28;19928;-68
2023/04/12 09:18:15;;;;;;;;;;;10.20;99.90;;;;;;5091703;28;20001;-69
2023/04/12 09:20:42;;;;;;;;;;;10.20;99.90;;;;;;5099840;28;19923;-68
2023/04/12 09:23:20;;;;;;;;;;;10.30;99.90;;;;;;5091318;28;19928;-70
2023/04/12 09:25:50;;;;;;;;;;;10.40;99.90;;;;;;5091550;28;19924;-69
2023/04/12 09:28:19;;;;;;;;;;;10.40;99.90;;;;;;5090556;28;19928;-67
2023/04/12 09:30:50;;;;;;;;;;;10.40;99.90;;;;;;5098491;28;19928;-69
2023/04/12 09:33:18;;;;;;;;;;;10.40;99.90;;;;;;5090085;28;19932;-68
2023/04/12 09:35:45;;;;;;;;;;;10.40;99.90;;;;;;5091365;28;19930;-69
2023/04/12 09:38:11;;;;;;;;;;;10.60;99.90;;;;;;5089415;28;19989;-68
2023/04/12 09:40:40;;;;;;;;;;;10.90;99.90;;;;;;5097376;28;19928;-69
2023/04/12 09:43:07;;;;;;;;;;;11.10;99.90;;;;;;5090555;28;19924;-69
2023/04/12 09:45:34;;;;;;;;;;;11.40;99.90;;;;;;5097928;28;19931;-67
2023/04/12 09:48:01;;;;;;;;;;;11.40;99.90;;;;;;5092029;28;19930;-69
2023/04/12 09:50:29;;;;;;;;;;;11.30;99.90;;;;;;5090383;28;19924;-68
2023/04/12 09:52:56;;;;;;;;;;;11.10;99.90;;;;;;5083712;28;20351;-70
2023/04/12 09:55:24;;;;;;;;;;;10.80;99.90;;;;;;5092072;28;19924;-68
2023/04/12 09:57:52;;;;;;;;;;;10.60;99.90;;;;;;5091536;28;20336;-68
2023/04/12 10:00:22;;;;;;;;;;;10.40;99.90;;;;;;5090086;28;19931;-67
2023/04/12 10:02:50;;;;;;;;;;;10.40;99.90;;;;;;5099678;28;20011;-68
2023/04/12 10:05:18;;;;;;;;;;;10.40;99.90;;;;;;5088224;28;19928;-70
2023/04/12 10:07:45;;;;;;;;;;;10.70;99.90;;;;;;5090520;28;19924;-69
2023/04/12 10:10:13;;;;;;;;;;;10.90;99.90;;;;;;5090767;28;19931;-68
2023/04/12 10:12:40;;;;;;;;;;;11.20;99.90;;;;;;5094277;28;19950;-68
2023/04/12 10:15:14;;;;;;;;;;;11.40;99.90;;;;;;5089488;28;19932;-69
2023/04/12 10:17:41;;;;;;;;;;;11.70;99.90;;;;;;5092989;28;19924;-69
2023/04/12 10:20:09;;;;;;;;;;;11.70;99.90;;;;;;5093562;28;19924;-68
2023/04/12 10:22:35;;;;;;;;;;;11.60;99.90;;;;;;5099667;28;20291;-68
2023/04/12 10:25:02;;;;;;;;;;;11.20;99.90;;;;;;5092533;28;19924;-65
2023/04/12 10:27:29;;;;;;;;;;;10.80;99.90;;;;;;5093344;28;19932;-69
2023/04/12 10:30:18;;;;;;;;;;;10.70;99.90;;;;;;5095952;28;20381;-68
2023/04/12 10:32:46;;;;;;;;;;;10.50;99.90;;;;;;5091242;28;19924;-69
2023/04/12 10:35:13;;;;;;;;;;;10.40;99.90;;;;;;5095556;28;19924;-68
2023/04/12 10:37:59;;;;;;;;;;;10.40;99.90;;;;;;5098089;28;19931;-69
2023/04/12 10:40:26;;;;;;;;;;;10.40;99.90;;;;;;5089060;28;20337;-68
2023/04/12 10:43:08;;;;;;;;;;;10.50;99.90;;;;;;5096612;28;19928;-68
2023/04/12 10:45:39;;;;;;;;;;;10.50;99.90;;;;;;5099032;28;20284;-68
2023/04/12 10:48:07;;;;;;;;;;;10.70;99.90;;;;;;5100510;28;20437;-67
2023/04/12 10:50:34;;;;;;;;;;;10.80;99.90;;;;;;5095304;28;19928;-69
2023/04/12 10:53:23;;;;;;;;;;;10.90;99.90;;;;;;5099294;28;19924;-70
2023/04/12 10:55:50;;;;;;;;;;;11.00;99.90;;;;;;5093890;28;20428;-69
2023/04/12 10:58:43;;;;;;;;;;;11.10;99.90;;;;;;5094872;28;19971;-69
2023/04/12 11:01:10;;;;;;;;;;;11.50;99.90;;;;;;5085044;28;19931;-69
2023/04/12 11:03:58;;;;;;;;;;;11.70;99.90;;;;;;5089181;28;19925;-68
2023/04/12 11:06:40;;;;;;;;;;;12.10;99.90;;;;;;5087864;28;19954;-67
2023/04/12 11:09:26;;;;;;;;;;;12.80;99.90;;;;;;5093075;28;20092;-68
2023/04/12 11:11:56;;;;;;;;;;;13.20;99.90;;;;;;5090961;28;19989;-68
2023/04/12 11:14:27;;;;;;;;;;;12.40;99.90;;;;;;5089542;28;20360;-66
2023/04/12 11:17:12;;;;;;;;;;;13.70;99.90;;;;;;5088908;28;19932;-69
2023/04/12 11:19:41;;;;;;;;;;;14.40;99.90;;;;;;5092575;28;19928;-69
2023/04/12 11:22:09;;;;;;;;;;;15.10;99.90;;;;;;5092994;28;19931;-68
2023/04/12 11:24:37;;;;;;;;;;;14.50;99.90;;;;;;5090193;28;19928;-68
2023/04/12 11:27:04;;;;;;;;;;;;;;;;;;5101361;28;20464;-67
2023/04/12 11:29:33;;;;;;;;;;;14.20;99.90;;;;;;5089316;28;19924;-69
2023/04/12 11:32:02;;;;;;;;;;;15.00;99.90;;;;;;5098430;28;19924;-68
2023/04/12 11:34:32;;;;;;;;;;;15.70;99.90;;;;;;5087719;28;20395;-69
2023/04/12 11:37:03;;;;;;;;;;;15.50;99.90;;;;;;5088001;28;19924;-69
2023/04/12 11:39:29;;;;;;;;;;;16.40;99.90;;;;;;5076500;28;19928;-69
2023/04/12 11:41:56;;;;;;;;;;;17.70;99.90;;;;;;5091342;28;19964;-69
2023/04/12 11:44:24;;;;;;;;;;;17.80;99.90;;;;;;5094307;28;20318;-69
2023/04/12 11:46:51;;;;;;;;;;;17.50;99.90;;;;;;5096508;28;19927;-68
2023/04/12 11:49:19;;;;;;;;;;;17.20;99.90;;;;;;5089414;28;19928;-69
2023/04/12 11:51:46;;;;;;;;;;;16.30;99.90;;;;;;5089880;28;19932;-71
2023/04/12 11:54:14;;;;;;;;;;;15.50;99.90;;;;;;5088097;28;19924;-68
2023/04/12 11:56:41;;;;;;;;;;;15.40;99.90;;;;;;5096522;28;19932;-68
2023/04/12 11:59:08;;;;;;;;;;;15.50;99.90;;;;;;5098456;28;19935;-68
2023/04/12 12:01:36;;;;;;;;;;;15.50;99.90;;;;;;5103373;28;20019;-68
2023/04/12 12:04:03;;;;;;;;;;;15.00;99.90;;;;;;5104426;28;19931;-68
2023/04/12 12:06:31;;;;;;;;;;;14.30;99.90;;;;;;5095559;28;19928;-68
2023/04/12 12:08:57;;;;;;;;;;;13.80;99.90;;;;;;5098568;28;20020;-68
2023/04/12 12:11:26;;;;;;;;;;;13.50;99.90;;;;;;5099425;28;19974;-68
2023/04/12 12:13:54;;;;;;;;;;;13.50;99.90;;;;;;5096717;28;19959;-69
2023/04/12 12:16:24;;;;;;;;;;;13.70;99.90;;;;;;5096827;28;19932;-68
2023/04/12 12:18:50;;;;;;;;;;;13.80;99.90;;;;;;5098153;28;20340;-68
2023/04/12 12:21:18;;;;;;;;;;;13.50;99.90;;;;;;5100026;28;19936;-69
2023/04/12 12:23:45;;;;;;;;;;;13.60;99.90;;;;;;5092185;28;19924;-69
2023/04/12 12:26:19;;;;;;;;;;;13.40;99.90;;;;;;5092677;28;19935;-70
2023/04/12 12:28:51;;;;;;;;;;;12.90;99.90;;;;;;5104319;28;19930;-70
2023/04/12 12:31:19;;;;;;;;;;;12.80;99.90;;;;;;5089626;28;20015;-68
2023/04/12 12:33:45;;;;;;;;;;;12.90;99.90;;;;;;5097301;28;19997;-69
2023/04/12 12:36:12;;;;;;;;;;;13.00;99.90;;;;;;5095269;28;19924;-70
2023/04/12 12:38:41;;;;;;;;;;;13.30;99.90;;;;;;5092574;28;20019;-69
2023/04/12 12:41:15;;;;;;;;;;;13.50;99.90;;;;;;5095271;28;20026;-69
2023/04/12 12:43:44;;;;;;;;;;;14.30;99.90;;;;;;5100657;28;20409;-70
2023/04/12 12:46:12;;;;;;;;;;;15.20;99.90;;;;;;5093676;28;19923;-70
2023/04/12 12:48:40;;;;;;;;;;;15.30;99.90;;;;;;5091974;28;19932;-69
2023/04/12 12:51:09;;;;;;;;;;;15.60;99.90;;;;;;5076996;28;22095;-71
2023/04/12 12:53:36;;;;;;;;;;;15.30;99.90;;;;;;5093329;28;19928;-70
2023/04/12 12:56:03;;;;;;;;;;;14.90;99.90;;;;;;5082025;28;19950;-69
2023/04/12 12:58:29;;;;;;;;;;;14.90;99.90;;;;;;5095417;28;19931;-66
2023/04/12 13:00:56;;;;;;;;;;;15.20;99.90;;;;;;5095336;28;19927;-70
2023/04/12 13:03:24;;;;;;;;;;;14.50;99.90;;;;;;5094399;28;19924;-72
2023/04/12 13:05:51;;;;;;;;;;;14.00;99.90;;;;;;5094885;28;19924;-67
2023/04/12 13:08:18;;;;;;;;;;;13.80;99.90;;;;;;5095903;28;19927;-69
2023/04/12 13:10:45;;;;;;;;;;;13.50;99.90;;;;;;5094715;28;20279;-68
2023/04/12 13:13:12;;;;;;;;;;;14.50;99.90;;;;;;5104239;28;19924;-68
2023/04/12 13:15:38;;;;;;;;;;;16.10;99.90;;;;;;5091903;28;20361;-72
2023/04/12 13:18:06;;;;;;;;;;;17.50;99.90;;;;;;5095216;28;19924;-69
2023/04/12 13:20:34;;;;;;;;;;;18.00;99.90;;;;;;5093130;28;20022;-69
2023/04/12 13:23:01;;;;;;;;;;;18.70;99.90;;;;;;5094147;28;19924;-70
2023/04/12 13:25:28;;;;;;;;;;;17.70;99.90;;;;;;5089004;28;19927;-68
2023/04/12 13:27:54;;;;;;;;;;;16.30;99.90;;;;;;5088274;28;19927;-69
2023/04/12 13:30:21;;;;;;;;;;;14.90;99.90;;;;;;5095632;28;19924;-70
2023/04/12 13:32:48;;;;;;;;;;;14.10;99.90;;;;;;5090937;28;19951;-69
2023/04/12 13:35:15;;;;;;;;;;;13.40;99.90;;;;;;5093874;28;19924;-69
2023/04/12 13:37:43;;;;;;;;;;;12.50;99.90;;;;;;5098451;28;20394;-69
2023/04/12 13:40:10;;;;;;;;;;;12.10;99.90;;;;;;5096825;28;19972;-69
2023/04/12 13:42:37;;;;;;;;;;;12.20;99.90;;;;;;5099243;28;20311;-69
2023/04/12 13:45:04;;;;;;;;;;;12.20;99.90;;;;;;5093501;28;19928;-70
2023/04/12 13:47:32;;;;;;;;;;;13.30;99.90;;;;;;5101632;28;19997;-68
2023/04/12 13:50:00;;;;;;;;;;;14.60;99.90;;;;;;5098636;28;19935;-69
2023/04/12 13:52:27;;;;;;;;;;;15.50;99.90;;;;;;5093986;28;19928;-68
2023/04/12 13:54:56;;;;;;;;;;;16.60;99.90;;;;;;5092969;28;20391;-67
2023/04/12 13:57:23;;;;;;;;;;;16.40;99.90;;;;;;5097425;28;20051;-68
2023/04/12 13:59:49;;;;;;;;;;;16.40;99.90;;;;;;5099418;28;20287;-68
2023/04/12 14:02:16;;;;;;;;;;;17.20;99.90;;;;;;5090607;28;19928;-70
2023/04/12 14:04:49;;;;;;;;;;;17.40;99.90;;;;;;5103485;28;19924;-69
2023/04/12 14:07:16;;;;;;;;;;;17.70;99.90;;;;;;5098622;28;19924;-69
2023/04/12 14:09:43;;;;;;;;;;;17.60;99.90;;;;;;5103963;28;19924;-75
2023/04/12 14:12:11;;;;;;;;;;;17.10;99.90;;;;;;5091026;28;19928;-70
2023/04/12 14:14:38;;;;;;;;;;;15.40;99.90;;;;;;5106504;28;19928;-70
2023/04/12 14:17:05;;;;;;;;;;;14.10;99.90;;;;;;5103065;28;19924;-67
2023/04/12 14:19:31;;;;;;;;;;;13.50;99.90;;;;;;5093279;28;19924;-67
2023/04/12 14:21:58;;;;;;;;;;;12.40;99.90;;;;;;5097635;28;20167;-69
2023/04/12 14:24:25;;;;;;;;;;;12.10;99.90;;;;;;5103444;28;19985;-68
2023/04/12 14:26:53;;;;;;;;;;;11.90;99.90;;;;;;5100853;28;19968;-69
2023/04/12 14:29:21;;;;;;;;;;;12.30;99.90;;;;;;5094779;28;19924;-70
2023/04/12 14:31:48;;;;;;;;;;;12.70;99.90;;;;;;5100645;28;20410;-69